sensor_id;sensor_type;location;lat;lon;timestamp;pressure;altitude;pressure_sealevel;temperature;humidity
74778;BME280;63298;53.164;8.610;2024-03-17T00:00:48;102525.91;;;6.03;66.99
74778;BME280;63298;53.164;8.610;2024-03-17T00:03:30;102528.66;;;6.03;67.18
74778;BME280;63298;53.164;8.610;2024-03-17T00:06:02;102526.94;;;6.02;66.94
74778;BME280;63298;53.164;8.610;2024-03-17T00:08:34;102512.00;;;5.89;66.57
74778;BME280;63298;53.164;8.610;2024-03-17T00:11:08;102518.47;;;5.88;67.36
74778;BME280;63298;53.164;8.610;2024-03-17T00:14:06;102530.50;;;5.87;67.39
74778;BME280;63298;53.164;8.610;2024-03-17T00:16:42;102529.44;;;5.88;67.22
74778;BME280;63298;53.164;8.610;2024-03-17T00:19:10;102537.50;;;5.89;67.64
74778;BME280;63298;53.164;8.610;2024-03-17T00:21:51;102541.25;;;5.88;67.66
74778;BME280;63298;53.164;8.610;2024-03-17T00:24:34;102531.25;;;5.79;67.90
74778;BME280;63298;53.164;8.610;2024-03-17T00:27:28;102532.13;;;5.80;67.29
74778;BME280;63298;53.164;8.610;2024-03-17T00:30:56;102533.13;;;5.71;67.44
74778;BME280;63298;53.164;8.610;2024-03-17T00:36:45;102524.53;;;5.65;67.48
74778;BME280;63298;53.164;8.610;2024-03-17T00:41:50;102522.94;;;5.55;67.41
74778;BME280;63298;53.164;8.610;2024-03-17T00:44:16;102524.81;;;5.54;67.91
74778;BME280;63298;53.164;8.610;2024-03-17T00:46:44;102521.91;;;5.56;67.75
74778;BME280;63298;53.164;8.610;2024-03-17T00:49:23;102531.34;;;5.61;67.91
74778;BME280;63298;53.164;8.610;2024-03-17T00:51:51;102546.44;;;5.65;68.38
74778;BME280;63298;53.164;8.610;2024-03-17T00:54:46;102530.31;;;5.62;67.40
74778;BME280;63298;53.164;8.610;2024-03-17T00:57:32;102526.03;;;5.60;67.98
74778;BME280;63298;53.164;8.610;2024-03-17T01:00:04;102523.63;;;5.57;67.35
74778;BME280;63298;53.164;8.610;2024-03-17T01:02:30;102528.94;;;5.58;67.84
74778;BME280;63298;53.164;8.610;2024-03-17T01:05:14;102528.03;;;5.50;67.58
74778;BME280;63298;53.164;8.610;2024-03-17T01:39:51;102505.09;;;5.17;67.98
74778;BME280;63298;53.164;8.610;2024-03-17T01:46:26;102517.91;;;5.16;68.39
74778;BME280;63298;53.164;8.610;2024-03-17T01:49:38;102507.94;;;5.07;68.06
74778;BME280;63298;53.164;8.610;2024-03-17T01:55:59;102514.09;;;5.09;68.91
74778;BME280;63298;53.164;8.610;2024-03-17T01:58:41;102518.69;;;5.09;68.76
74778;BME280;63298;53.164;8.610;2024-03-17T02:01:34;102519.19;;;5.04;68.75
74778;BME280;63298;53.164;8.610;2024-03-17T02:04:43;102506.31;;;4.97;68.01
74778;BME280;63298;53.164;8.610;2024-03-17T02:07:50;102516.13;;;5.07;68.73
74778;BME280;63298;53.164;8.610;2024-03-17T02:22:24;102504.34;;;4.89;68.29
74778;BME280;63298;53.164;8.610;2024-03-17T09:59:54;102552.50;;;10.15;68.29
74778;BME280;63298;53.164;8.610;2024-03-17T10:05:21;102553.28;;;10.24;68.33
74778;BME280;63298;53.164;8.610;2024-03-17T10:07:54;102549.47;;;10.25;67.73
74778;BME280;63298;53.164;8.610;2024-03-17T10:10:41;102547.63;;;10.32;68.07
74778;BME280;63298;53.164;8.610;2024-03-17T10:13:14;102550.09;;;10.42;67.94
74778;BME280;63298;53.164;8.610;2024-03-17T10:15:48;102540.00;;;10.49;67.56
74778;BME280;63298;53.164;8.610;2024-03-17T10:18:23;102531.41;;;10.58;66.78
74778;BME280;63298;53.164;8.610;2024-03-17T10:20:49;102545.56;;;10.70;66.92
74778;BME280;63298;53.164;8.610;2024-03-17T10:23:14;102542.47;;;10.79;66.84
74778;BME280;63298;53.164;8.610;2024-03-17T10:25:40;102542.31;;;10.88;66.98
74778;BME280;63298;53.164;8.610;2024-03-17T10:28:12;102529.66;;;10.93;66.09
74778;BME280;63298;53.164;8.610;2024-03-17T10:30:38;102532.00;;;10.96;65.59
74778;BME280;63298;53.164;8.610;2024-03-17T10:33:07;102536.06;;;11.00;65.98
74778;BME280;63298;53.164;8.610;2024-03-17T10:35:37;102536.81;;;11.09;65.60
74778;BME280;63298;53.164;8.610;2024-03-17T10:38:04;102528.97;;;11.12;65.25
74778;BME280;63298;53.164;8.610;2024-03-17T10:40:33;102527.72;;;11.15;65.08
74778;BME280;63298;53.164;8.610;2024-03-17T10:43:01;102526.72;;;11.22;65.03
74778;BME280;63298;53.164;8.610;2024-03-17T10:45:29;102529.56;;;11.36;65.20
74778;BME280;63298;53.164;8.610;2024-03-17T10:47:55;102530.03;;;11.39;64.32
74778;BME280;63298;53.164;8.610;2024-03-17T10:50:25;102520.47;;;11.42;63.94
74778;BME280;63298;53.164;8.610;2024-03-17T10:53:05;102523.31;;;11.48;64.44
74778;BME280;63298;53.164;8.610;2024-03-17T10:55:33;102516.81;;;11.62;64.36
74778;BME280;63298;53.164;8.610;2024-03-17T10:58:33;102511.91;;;11.64;63.34
74778;BME280;63298;53.164;8.610;2024-03-17T11:00:58;102519.41;;;11.70;63.50
74778;BME280;63298;53.164;8.610;2024-03-17T11:03:34;102503.31;;;11.74;64.07
74778;BME280;63298;53.164;8.610;2024-03-17T11:06:06;102497.16;;;11.79;63.42
74778;BME280;63298;53.164;8.610;2024-03-17T11:14:37;102497.47;;;11.97;62.91
74778;BME280;63298;53.164;8.610;2024-03-17T11:17:17;102492.78;;;12.04;62.35
74778;BME280;63298;53.164;8.610;2024-03-17T11:19:43;102491.16;;;12.16;62.77
74778;BME280;63298;53.164;8.610;2024-03-17T11:22:45;102490.97;;;12.24;61.56
74778;BME280;63298;53.164;8.610;2024-03-17T11:27:55;102488.66;;;12.28;62.27
74778;BME280;63298;53.164;8.610;2024-03-17T11:39:15;102487.41;;;12.37;61.02
74778;BME280;63298;53.164;8.610;2024-03-17T11:41:42;102497.00;;;12.41;61.04
74778;BME280;63298;53.164;8.610;2024-03-17T11:47:15;102496.38;;;12.52;60.46
74778;BME280;63298;53.164;8.610;2024-03-17T11:49:40;102496.38;;;12.52;60.48
74778;BME280;63298;53.164;8.610;2024-03-17T11:52:12;102505.75;;;12.51;60.71
74778;BME280;63298;53.164;8.610;2024-03-17T11:54:40;102498.09;;;12.53;60.78
74778;BME280;63298;53.164;8.610;2024-03-17T11:57:10;102504.50;;;12.60;60.96
74778;BME280;63298;53.164;8.610;2024-03-17T11:59:37;102495.97;;;12.68;61.06
74778;BME280;63298;53.164;8.610;2024-03-17T12:02:10;102497.69;;;12.69;59.63
74778;BME280;63298;53.164;8.610;2024-03-17T12:07:54;102483.84;;;12.63;60.37
74778;BME280;63298;53.164;8.610;2024-03-17T12:10:19;102478.53;;;12.68;60.56
74778;BME280;63298;53.164;8.610;2024-03-17T12:12:50;102474.47;;;12.64;60.07
74778;BME280;63298;53.164;8.610;2024-03-17T12:15:32;102473.84;;;12.62;60.35
74778;BME280;63298;53.164;8.610;2024-03-17T12:18:39;102468.53;;;12.67;58.06
74778;BME280;63298;53.164;8.610;2024-03-17T12:21:17;102476.41;;;12.76;59.54
74778;BME280;63298;53.164;8.610;2024-03-17T12:26:24;102463.44;;;12.96;60.04
74778;BME280;63298;53.164;8.610;2024-03-17T12:28:58;102472.81;;;13.15;59.44
74778;BME280;63298;53.164;8.610;2024-03-17T12:31:58;102470.47;;;13.25;59.42
74778;BME280;63298;53.164;8.610;2024-03-17T12:41:25;102457.69;;;13.31;58.58
74778;BME280;63298;53.164;8.610;2024-03-17T12:44:07;102458.75;;;13.23;58.87
74778;BME280;63298;53.164;8.610;2024-03-17T12:50:02;102459.78;;;13.03;57.60
74778;BME280;63298;53.164;8.610;2024-03-17T12:52:32;102452.56;;;13.02;57.45
74778;BME280;63298;53.164;8.610;2024-03-17T12:55:15;102442.53;;;12.94;56.89
74778;BME280;63298;53.164;8.610;2024-03-17T13:01:03;102434.88;;;12.96;58.19
74778;BME280;63298;53.164;8.610;2024-03-17T13:03:44;102431.47;;;13.01;58.44
74778;BME280;63298;53.164;8.610;2024-03-17T13:06:20;102423.34;;;13.06;58.20
74778;BME280;63298;53.164;8.610;2024-03-17T13:08:47;102426.53;;;13.03;57.57
74778;BME280;63298;53.164;8.610;2024-03-17T13:11:13;102422.69;;;13.04;57.56
74778;BME280;63298;53.164;8.610;2024-03-17T13:13:47;102422.50;;;13.18;57.62
74778;BME280;63298;53.164;8.610;2024-03-17T13:16:12;102408.66;;;13.31;57.40
74778;BME280;63298;53.164;8.610;2024-03-17T13:25:40;102394.47;;;13.66;56.78
74778;BME280;63298;53.164;8.610;2024-03-17T13:28:14;102386.34;;;13.71;55.88
74778;BME280;63298;53.164;8.610;2024-03-17T13:30:45;102394.59;;;13.84;57.09
74778;BME280;63298;53.164;8.610;2024-03-17T13:33:21;102392.66;;;13.91;52.75
74778;BME280;63298;53.164;8.610;2024-03-17T13:35:57;102393.63;;;14.03;56.44
74778;BME280;63298;53.164;8.610;2024-03-17T13:38:22;102390.22;;;14.01;56.20
74778;BME280;63298;53.164;8.610;2024-03-17T13:40:48;102384.91;;;14.00;56.31
74778;BME280;63298;53.164;8.610;2024-03-17T13:43:16;102384.25;;;13.98;55.33
74778;BME280;63298;53.164;8.610;2024-03-17T13:45:44;102384.72;;;13.95;56.41
74778;BME280;63298;53.164;8.610;2024-03-17T13:48:12;102375.34;;;13.89;55.85
74778;BME280;63298;53.164;8.610;2024-03-17T13:50:39;102374.13;;;13.78;55.24
74778;BME280;63298;53.164;8.610;2024-03-17T13:53:07;102350.75;;;13.61;54.45
74778;BME280;63298;53.164;8.610;2024-03-17T13:55:33;102359.09;;;13.48;55.08
74778;BME280;63298;53.164;8.610;2024-03-17T13:57:59;102356.13;;;13.43;55.93
74778;BME280;63298;53.164;8.610;2024-03-17T14:00:25;102362.13;;;13.47;55.78
74778;BME280;63298;53.164;8.610;2024-03-17T14:02:55;102361.06;;;13.34;55.91
74778;BME280;63298;53.164;8.610;2024-03-17T14:05:38;102350.44;;;13.31;55.63
74778;BME280;63298;53.164;8.610;2024-03-17T14:08:10;102347.47;;;13.26;55.60
74778;BME280;63298;53.164;8.610;2024-03-17T14:13:14;102341.66;;;13.34;56.24
74778;BME280;63298;53.164;8.610;2024-03-17T14:15:39;102344.66;;;13.33;55.51
74778;BME280;63298;53.164;8.610;2024-03-17T14:18:05;102339.09;;;13.33;55.82
74778;BME280;63298;53.164;8.610;2024-03-17T14:20:30;102338.69;;;13.36;56.05
74778;BME280;63298;53.164;8.610;2024-03-17T14:22:58;102338.72;;;13.29;55.97
74778;BME280;63298;53.164;8.610;2024-03-17T14:25:34;102338.28;;;13.26;55.65
74778;BME280;63298;53.164;8.610;2024-03-17T21:45:36;102157.56;;;9.64;59.39
74778;BME280;63298;53.164;8.610;2024-03-17T21:48:10;102152.84;;;9.58;60.20
74778;BME280;63298;53.164;8.610;2024-03-17T21:50:36;102152.84;;;9.58;60.52
74778;BME280;63298;53.164;8.610;2024-03-17T21:53:01;102148.19;;;9.59;59.90
74778;BME280;63298;53.164;8.610;2024-03-17T21:55:27;102142.63;;;9.52;60.04
74778;BME280;63298;53.164;8.610;2024-03-17T21:58:03;102151.53;;;9.54;60.06
74778;BME280;63298;53.164;8.610;2024-03-17T22:00:29;102139.41;;;9.48;59.35
74778;BME280;63298;53.164;8.610;2024-03-17T22:02:56;102139.63;;;9.47;59.64
74778;BME280;63298;53.164;8.610;2024-03-17T22:05:21;102133.84;;;9.42;59.98
74778;BME280;63298;53.164;8.610;2024-03-17T22:07:47;102133.00;;;9.41;59.58
74778;BME280;63298;53.164;8.610;2024-03-17T22:10:12;102142.75;;;9.44;59.89
74778;BME280;63298;53.164;8.610;2024-03-17T22:12:40;102135.53;;;9.43;59.73
74778;BME280;63298;53.164;8.610;2024-03-17T22:15:15;102125.78;;;9.40;59.33
74778;BME280;63298;53.164;8.610;2024-03-17T22:17:41;102130.00;;;9.36;58.97
74778;BME280;63298;53.164;8.610;2024-03-17T22:20:09;102126.13;;;9.31;58.96
74778;BME280;63298;53.164;8.610;2024-03-17T22:22:37;102126.97;;;9.31;58.85
74778;BME280;63298;53.164;8.610;2024-03-17T22:25:03;102127.16;;;9.30;58.34
74778;BME280;63298;53.164;8.610;2024-03-17T22:27:31;102129.47;;;9.26;58.57
74778;BME280;63298;53.164;8.610;2024-03-17T22:30:06;102127.56;;;9.27;58.50
74778;BME280;63298;53.164;8.610;2024-03-17T22:32:35;102110.78;;;9.22;59.30
74778;BME280;63298;53.164;8.610;2024-03-17T22:35:00;102127.94;;;9.24;58.34
74778;BME280;63298;53.164;8.610;2024-03-17T22:37:29;102121.97;;;9.20;58.54
74778;BME280;63298;53.164;8.610;2024-03-17T22:40:00;102108.22;;;9.20;58.53
74778;BME280;63298;53.164;8.610;2024-03-17T22:42:35;102104.34;;;9.15;58.57
74778;BME280;63298;53.164;8.610;2024-03-17T22:45:04;102092.69;;;9.13;58.60
74778;BME280;63298;53.164;8.610;2024-03-17T22:47:32;102103.44;;;9.07;58.46
74778;BME280;63298;53.164;8.610;2024-03-17T22:50:00;102100.88;;;9.06;58.51
74778;BME280;63298;53.164;8.610;2024-03-17T22:52:33;102090.31;;;9.09;58.91
74778;BME280;63298;53.164;8.610;2024-03-17T22:54:58;102083.97;;;9.09;58.68
74778;BME280;63298;53.164;8.610;2024-03-17T22:57:24;102074.22;;;9.06;59.10
74778;BME280;63298;53.164;8.610;2024-03-17T22:59:49;102069.94;;;9.04;58.69
74778;BME280;63298;53.164;8.610;2024-03-17T23:02:17;102075.00;;;9.00;58.34
74778;BME280;63298;53.164;8.610;2024-03-17T23:04:45;102074.81;;;9.02;58.83
74778;BME280;63298;53.164;8.610;2024-03-17T23:07:11;102083.91;;;9.02;58.78
74778;BME280;63298;53.164;8.610;2024-03-17T23:09:39;102069.41;;;8.94;57.89
74778;BME280;63298;53.164;8.610;2024-03-17T23:12:07;102061.16;;;8.94;58.84
74778;BME280;63298;53.164;8.610;2024-03-17T23:14:33;102061.81;;;8.96;58.83
74778;BME280;63298;53.164;8.610;2024-03-17T23:17:01;102060.97;;;8.95;58.80
74778;BME280;63298;53.164;8.610;2024-03-17T23:19:26;102062.22;;;8.93;58.56
74778;BME280;63298;53.164;8.610;2024-03-17T23:21:52;102069.03;;;8.97;58.31
74778;BME280;63298;53.164;8.610;2024-03-17T23:24:28;102048.47;;;8.93;58.10
74778;BME280;63298;53.164;8.610;2024-03-17T23:26:54;102053.31;;;8.91;59.12
74778;BME280;63298;53.164;8.610;2024-03-17T23:29:23;102061.09;;;8.87;58.50
74778;BME280;63298;53.164;8.610;2024-03-17T23:31:48;102051.13;;;8.86;59.12
74778;BME280;63298;53.164;8.610;2024-03-17T23:34:26;102044.78;;;8.86;59.01
74778;BME280;63298;53.164;8.610;2024-03-17T23:36:51;102057.94;;;8.90;58.80
74778;BME280;63298;53.164;8.610;2024-03-17T23:39:23;102054.25;;;8.83;58.96
74778;BME280;63298;53.164;8.610;2024-03-17T23:41:49;102055.34;;;8.82;59.08
74778;BME280;63298;53.164;8.610;2024-03-17T23:44:15;102063.59;;;8.82;58.97
74778;BME280;63298;53.164;8.610;2024-03-17T23:46:43;102059.97;;;8.82;58.48
74778;BME280;63298;53.164;8.610;2024-03-17T23:49:11;102061.22;;;8.79;59.05
74778;BME280;63298;53.164;8.610;2024-03-17T23:51:37;102062.47;;;8.77;58.73
74778;BME280;63298;53.164;8.610;2024-03-17T23:54:02;102053.75;;;8.73;58.89
74778;BME280;63298;53.164;8.610;2024-03-17T23:56:28;102051.84;;;8.74;58.89
74778;BME280;63298;53.164;8.610;2024-03-17T23:58:59;102056.97;;;8.77;59.03
